Etusivu
METAR-TAF:

METAR-TAF

Lentoasemat :

Sault Ste. Marie Municipal Airport (Sanderson Field)

Sault Ste. Marie, Michigan, Yhdysvallat

Leveyspiiri: 46-28-46N, Pituuspiiri: 084-21-26W, korkeus merenpinnasta: 210 m

Tämänhetkinen sää

Tämä raportti tehtiin 34 minuuttia sitten, kello 02.55 UTC
tyyntä
Lämpötila 15°C
Kosteus 94%
Ilmanpaine 1012 hPa
Näkyvyys: 16.1 km
Hajonneita pilviä 9500 ft:n korkeudessa
Hajonneita pilviä 11000 ft:n korkeudessa

METAR: KANJ 190255Z AUTO 00000KT 10SM BKN095 BKN110 15/14 A2988 RMK AO2 SLP116 60000 T01500139 55002

Aika: 23:29 (03:29 UTC)


TAF: puuttuu

Säähavainnot ja -ennusteet yli 4000 lentoasemalta (METAR- ja TAF-raportit).

Käytössä olevat sääasemat on merkitty karttaan keltaisilla ja punaisilla pisteillä.

Aseta hiiri pisteen päälle nähdäksesi sääaseman nimen.

Klikkaa sitten nähdäksesi säähavainnot ja -ennusteet.

Kartan vaihtaminen: klikkaa mustalla rastilla varustettuja vihreitä pisteitä, niin voit zoomata sisään; viivalla varustettua vihreää pistettä, niin voit zoomata ulos tai vihreitä nuolia, niin pääset viereisille kartoille.


METAR-TAF: